sensor_id;sensor_type;location;lat;lon;timestamp;P1;durP1;ratioP1;P2;durP2;ratioP2
49840;SDS011;35738;49.890;5.930;2023-02-15T00:01:47;56.57;;;31.37;;
49840;SDS011;35738;49.890;5.930;2023-02-15T00:04:15;56.15;;;31.38;;
49840;SDS011;35738;49.890;5.930;2023-02-15T00:06:44;58.55;;;30.90;;
49840;SDS011;35738;49.890;5.930;2023-02-15T00:09:10;56.13;;;30.70;;
49840;SDS011;35738;49.890;5.930;2023-02-15T00:11:38;54.57;;;31.57;;
49840;SDS011;35738;49.890;5.930;2023-02-15T00:14:18;54.67;;;28.70;;
49840;SDS011;35738;49.890;5.930;2023-02-15T00:16:47;55.07;;;29.53;;
49840;SDS011;35738;49.890;5.930;2023-02-15T00:19:15;52.50;;;28.23;;
49840;SDS011;35738;49.890;5.930;2023-02-15T00:21:43;54.37;;;28.23;;
49840;SDS011;35738;49.890;5.930;2023-02-15T00:24:10;50.30;;;27.57;;
49840;SDS011;35738;49.890;5.930;2023-02-15T00:26:39;47.80;;;27.27;;
49840;SDS011;35738;49.890;5.930;2023-02-15T00:29:07;47.00;;;26.30;;
49840;SDS011;35738;49.890;5.930;2023-02-15T00:31:34;51.42;;;26.63;;
49840;SDS011;35738;49.890;5.930;2023-02-15T00:36:29;51.07;;;27.83;;
49840;SDS011;35738;49.890;5.930;2023-02-15T00:38:56;45.88;;;25.52;;
49840;SDS011;35738;49.890;5.930;2023-02-15T00:41:22;48.20;;;26.17;;
49840;SDS011;35738;49.890;5.930;2023-02-15T00:43:49;47.20;;;26.37;;
49840;SDS011;35738;49.890;5.930;2023-02-15T00:46:15;43.20;;;27.20;;
49840;SDS011;35738;49.890;5.930;2023-02-15T00:48:42;45.63;;;26.10;;
49840;SDS011;35738;49.890;5.930;2023-02-15T00:51:09;47.60;;;26.70;;
49840;SDS011;35738;49.890;5.930;2023-02-15T00:53:35;45.53;;;27.03;;
49840;SDS011;35738;49.890;5.930;2023-02-15T00:56:01;46.33;;;25.43;;
49840;SDS011;35738;49.890;5.930;2023-02-15T00:58:28;44.80;;;26.53;;
49840;SDS011;35738;49.890;5.930;2023-02-15T01:01:01;49.40;;;27.27;;
49840;SDS011;35738;49.890;5.930;2023-02-15T01:03:32;50.10;;;27.73;;
49840;SDS011;35738;49.890;5.930;2023-02-15T01:06:00;42.13;;;25.10;;
49840;SDS011;35738;49.890;5.930;2023-02-15T01:08:27;45.87;;;24.77;;
49840;SDS011;35738;49.890;5.930;2023-02-15T01:10:53;43.30;;;24.77;;
49840;SDS011;35738;49.890;5.930;2023-02-15T01:13:20;42.97;;;24.37;;
49840;SDS011;35738;49.890;5.930;2023-02-15T01:15:52;43.90;;;24.00;;
49840;SDS011;35738;49.890;5.930;2023-02-15T01:18:20;40.03;;;22.93;;
49840;SDS011;35738;49.890;5.930;2023-02-15T01:20:47;40.33;;;22.80;;
49840;SDS011;35738;49.890;5.930;2023-02-15T01:23:14;40.43;;;22.80;;
49840;SDS011;35738;49.890;5.930;2023-02-15T01:25:41;39.17;;;22.80;;
49840;SDS011;35738;49.890;5.930;2023-02-15T01:28:07;40.90;;;23.73;;
49840;SDS011;35738;49.890;5.930;2023-02-15T01:30:34;42.90;;;22.67;;
49840;SDS011;35738;49.890;5.930;2023-02-15T01:33:00;44.13;;;23.03;;
49840;SDS011;35738;49.890;5.930;2023-02-15T01:35:27;40.40;;;22.53;;
49840;SDS011;35738;49.890;5.930;2023-02-15T01:37:55;38.23;;;21.30;;
49840;SDS011;35738;49.890;5.930;2023-02-15T01:40:22;38.57;;;21.90;;
49840;SDS011;35738;49.890;5.930;2023-02-15T01:42:50;39.00;;;21.53;;
49840;SDS011;35738;49.890;5.930;2023-02-15T01:45:24;41.93;;;22.77;;
49840;SDS011;35738;49.890;5.930;2023-02-15T01:50:43;39.03;;;22.30;;
49840;SDS011;35738;49.890;5.930;2023-02-15T01:53:27;38.50;;;22.30;;
49840;SDS011;35738;49.890;5.930;2023-02-15T01:56:02;38.60;;;21.30;;
49840;SDS011;35738;49.890;5.930;2023-02-15T01:58:34;37.93;;;21.10;;
49840;SDS011;35738;49.890;5.930;2023-02-15T02:01:02;39.47;;;21.67;;
49840;SDS011;35738;49.890;5.930;2023-02-15T02:06:30;39.47;;;21.80;;
49840;SDS011;35738;49.890;5.930;2023-02-15T02:08:59;41.50;;;23.10;;
49840;SDS011;35738;49.890;5.930;2023-02-15T02:11:26;41.50;;;24.07;;
49840;SDS011;35738;49.890;5.930;2023-02-15T02:13:52;41.37;;;23.27;;
49840;SDS011;35738;49.890;5.930;2023-02-15T02:17:22;38.37;;;22.60;;
49840;SDS011;35738;49.890;5.930;2023-02-15T02:19:38;40.43;;;23.73;;
49840;SDS011;35738;49.890;5.930;2023-02-15T02:22:31;41.20;;;23.60;;
49840;SDS011;35738;49.890;5.930;2023-02-15T02:28:02;43.73;;;25.43;;
49840;SDS011;35738;49.890;5.930;2023-02-15T02:41:49;46.90;;;26.20;;
49840;SDS011;35738;49.890;5.930;2023-02-15T02:44:31;47.37;;;27.13;;
49840;SDS011;35738;49.890;5.930;2023-02-15T02:47:10;45.73;;;26.07;;
49840;SDS011;35738;49.890;5.930;2023-02-15T02:49:42;46.87;;;26.60;;
49840;SDS011;35738;49.890;5.930;2023-02-15T02:55:01;47.67;;;26.97;;
49840;SDS011;35738;49.890;5.930;2023-02-15T02:57:53;46.90;;;26.17;;
49840;SDS011;35738;49.890;5.930;2023-02-15T03:00:20;46.50;;;25.80;;
49840;SDS011;35738;49.890;5.930;2023-02-15T03:02:50;46.70;;;26.17;;
49840;SDS011;35738;49.890;5.930;2023-02-15T03:05:25;45.13;;;25.13;;
49840;SDS011;35738;49.890;5.930;2023-02-15T03:07:55;43.00;;;24.97;;
49840;SDS011;35738;49.890;5.930;2023-02-15T03:10:27;47.87;;;26.53;;
49840;SDS011;35738;49.890;5.930;2023-02-15T03:12:55;40.10;;;25.07;;
49840;SDS011;35738;49.890;5.930;2023-02-15T03:15:25;43.57;;;25.20;;
49840;SDS011;35738;49.890;5.930;2023-02-15T03:18:16;45.27;;;26.10;;
49840;SDS011;35738;49.890;5.930;2023-02-15T03:20:46;49.77;;;27.07;;
49840;SDS011;35738;49.890;5.930;2023-02-15T03:23:15;42.50;;;24.83;;
49840;SDS011;35738;49.890;5.930;2023-02-15T03:25:46;44.40;;;25.47;;
49840;SDS011;35738;49.890;5.930;2023-02-15T03:28:20;45.50;;;24.80;;
49840;SDS011;35738;49.890;5.930;2023-02-15T03:30:52;45.37;;;24.80;;
49840;SDS011;35738;49.890;5.930;2023-02-15T03:33:21;43.77;;;25.40;;
49840;SDS011;35738;49.890;5.930;2023-02-15T03:35:53;42.03;;;23.87;;
49840;SDS011;35738;49.890;5.930;2023-02-15T03:38:29;39.30;;;24.20;;
49840;SDS011;35738;49.890;5.930;2023-02-15T03:41:02;40.57;;;23.30;;
49840;SDS011;35738;49.890;5.930;2023-02-15T03:43:38;44.33;;;23.03;;
49840;SDS011;35738;49.890;5.930;2023-02-15T03:46:31;40.40;;;22.77;;
49840;SDS011;35738;49.890;5.930;2023-02-15T03:49:07;37.50;;;21.93;;
49840;SDS011;35738;49.890;5.930;2023-02-15T03:51:37;36.27;;;21.23;;
49840;SDS011;35738;49.890;5.930;2023-02-15T03:54:13;36.57;;;22.20;;
49840;SDS011;35738;49.890;5.930;2023-02-15T03:57:03;35.80;;;21.17;;
49840;SDS011;35738;49.890;5.930;2023-02-15T03:59:48;39.37;;;22.50;;
49840;SDS011;35738;49.890;5.930;2023-02-15T04:02:36;34.33;;;21.60;;
49840;SDS011;35738;49.890;5.930;2023-02-15T04:05:07;37.53;;;21.70;;
49840;SDS011;35738;49.890;5.930;2023-02-15T04:07:33;37.70;;;22.50;;
49840;SDS011;35738;49.890;5.930;2023-02-15T04:10:00;40.77;;;22.57;;
49840;SDS011;35738;49.890;5.930;2023-02-15T04:12:45;37.53;;;22.10;;
49840;SDS011;35738;49.890;5.930;2023-02-15T04:15:12;38.40;;;22.00;;
49840;SDS011;35738;49.890;5.930;2023-02-15T04:17:57;37.33;;;21.77;;
49840;SDS011;35738;49.890;5.930;2023-02-15T04:20:23;37.50;;;22.43;;
49840;SDS011;35738;49.890;5.930;2023-02-15T04:23:09;40.17;;;23.30;;
49840;SDS011;35738;49.890;5.930;2023-02-15T04:25:54;37.60;;;21.83;;
49840;SDS011;35738;49.890;5.930;2023-02-15T04:28:20;37.17;;;22.17;;
49840;SDS011;35738;49.890;5.930;2023-02-15T04:30:47;40.53;;;23.43;;
49840;SDS011;35738;49.890;5.930;2023-02-15T04:33:13;39.97;;;23.57;;
49840;SDS011;35738;49.890;5.930;2023-02-15T04:35:40;44.67;;;24.80;;
49840;SDS011;35738;49.890;5.930;2023-02-15T04:38:06;38.83;;;23.80;;
49840;SDS011;35738;49.890;5.930;2023-02-15T04:40:32;43.33;;;25.03;;
49840;SDS011;35738;49.890;5.930;2023-02-15T04:42:59;45.27;;;26.07;;
49840;SDS011;35738;49.890;5.930;2023-02-15T04:45:25;43.77;;;24.93;;
49840;SDS011;35738;49.890;5.930;2023-02-15T04:47:53;48.50;;;25.57;;
49840;SDS011;35738;49.890;5.930;2023-02-15T04:50:19;43.53;;;25.83;;
49840;SDS011;35738;49.890;5.930;2023-02-15T04:52:46;46.90;;;25.97;;
49840;SDS011;35738;49.890;5.930;2023-02-15T04:55:12;45.17;;;26.13;;
49840;SDS011;35738;49.890;5.930;2023-02-15T04:57:40;46.63;;;25.60;;
49840;SDS011;35738;49.890;5.930;2023-02-15T05:00:06;44.67;;;25.93;;
49840;SDS011;35738;49.890;5.930;2023-02-15T05:02:34;46.93;;;26.40;;
49840;SDS011;35738;49.890;5.930;2023-02-15T05:05:01;45.13;;;25.07;;
49840;SDS011;35738;49.890;5.930;2023-02-15T05:07:27;48.40;;;25.70;;
49840;SDS011;35738;49.890;5.930;2023-02-15T05:09:54;47.90;;;26.97;;
49840;SDS011;35738;49.890;5.930;2023-02-15T05:12:20;47.03;;;25.47;;
49840;SDS011;35738;49.890;5.930;2023-02-15T05:14:47;42.47;;;25.43;;
49840;SDS011;35738;49.890;5.930;2023-02-15T05:17:13;49.90;;;27.40;;
49840;SDS011;35738;49.890;5.930;2023-02-15T05:19:40;49.10;;;26.70;;
49840;SDS011;35738;49.890;5.930;2023-02-15T05:22:06;46.90;;;26.23;;
49840;SDS011;35738;49.890;5.930;2023-02-15T05:24:33;48.53;;;27.57;;
49840;SDS011;35738;49.890;5.930;2023-02-15T05:27:18;48.50;;;26.53;;
49840;SDS011;35738;49.890;5.930;2023-02-15T05:30:07;42.73;;;25.67;;
49840;SDS011;35738;49.890;5.930;2023-02-15T05:32:38;44.83;;;26.53;;
49840;SDS011;35738;49.890;5.930;2023-02-15T05:35:05;47.57;;;26.80;;
49840;SDS011;35738;49.890;5.930;2023-02-15T05:37:33;46.23;;;26.77;;
49840;SDS011;35738;49.890;5.930;2023-02-15T05:40:00;49.83;;;27.17;;
49840;SDS011;35738;49.890;5.930;2023-02-15T05:42:26;46.83;;;26.20;;
49840;SDS011;35738;49.890;5.930;2023-02-15T05:44:53;48.80;;;27.27;;
49840;SDS011;35738;49.890;5.930;2023-02-15T05:47:19;48.33;;;27.27;;
49840;SDS011;35738;49.890;5.930;2023-02-15T05:49:46;44.50;;;25.47;;
49840;SDS011;35738;49.890;5.930;2023-02-15T05:52:12;51.37;;;28.47;;
49840;SDS011;35738;49.890;5.930;2023-02-15T05:54:38;49.40;;;27.33;;
49840;SDS011;35738;49.890;5.930;2023-02-15T05:57:05;48.13;;;27.57;;
49840;SDS011;35738;49.890;5.930;2023-02-15T05:59:31;48.93;;;26.37;;
49840;SDS011;35738;49.890;5.930;2023-02-15T06:01:58;50.83;;;28.17;;
49840;SDS011;35738;49.890;5.930;2023-02-15T06:04:24;50.97;;;28.37;;
49840;SDS011;35738;49.890;5.930;2023-02-15T06:06:51;54.57;;;28.10;;
49840;SDS011;35738;49.890;5.930;2023-02-15T06:09:17;48.20;;;26.90;;
49840;SDS011;35738;49.890;5.930;2023-02-15T06:11:45;51.43;;;27.87;;
49840;SDS011;35738;49.890;5.930;2023-02-15T06:14:12;52.63;;;27.50;;
49840;SDS011;35738;49.890;5.930;2023-02-15T06:16:38;48.30;;;26.87;;
49840;SDS011;35738;49.890;5.930;2023-02-15T06:19:05;53.03;;;27.57;;
49840;SDS011;35738;49.890;5.930;2023-02-15T06:21:31;47.63;;;26.30;;
49840;SDS011;35738;49.890;5.930;2023-02-15T06:23:58;52.30;;;28.77;;
49840;SDS011;35738;49.890;5.930;2023-02-15T06:26:24;52.47;;;29.67;;
49840;SDS011;35738;49.890;5.930;2023-02-15T06:28:51;56.27;;;29.87;;
49840;SDS011;35738;49.890;5.930;2023-02-15T06:31:17;53.23;;;29.60;;
49840;SDS011;35738;49.890;5.930;2023-02-15T06:33:44;58.13;;;31.23;;
49840;SDS011;35738;49.890;5.930;2023-02-15T06:36:10;56.03;;;31.27;;
49840;SDS011;35738;49.890;5.930;2023-02-15T06:38:38;58.47;;;31.40;;
49840;SDS011;35738;49.890;5.930;2023-02-15T06:41:04;54.00;;;29.47;;
49840;SDS011;35738;49.890;5.930;2023-02-15T06:43:31;59.00;;;31.13;;
49840;SDS011;35738;49.890;5.930;2023-02-15T06:45:57;58.03;;;30.50;;
49840;SDS011;35738;49.890;5.930;2023-02-15T06:48:24;58.33;;;31.53;;
49840;SDS011;35738;49.890;5.930;2023-02-15T06:50:50;61.20;;;31.90;;
49840;SDS011;35738;49.890;5.930;2023-02-15T06:53:17;62.27;;;32.10;;
49840;SDS011;35738;49.890;5.930;2023-02-15T06:55:43;57.73;;;30.10;;
49840;SDS011;35738;49.890;5.930;2023-02-15T06:58:10;59.07;;;30.90;;
49840;SDS011;35738;49.890;5.930;2023-02-15T07:00:36;55.90;;;29.73;;
49840;SDS011;35738;49.890;5.930;2023-02-15T07:03:03;52.97;;;29.50;;
49840;SDS011;35738;49.890;5.930;2023-02-15T07:05:32;57.10;;;30.70;;
49840;SDS011;35738;49.890;5.930;2023-02-15T07:08:00;54.20;;;30.07;;
49840;SDS011;35738;49.890;5.930;2023-02-15T07:10:27;57.40;;;30.00;;
49840;SDS011;35738;49.890;5.930;2023-02-15T07:12:54;56.93;;;30.83;;
49840;SDS011;35738;49.890;5.930;2023-02-15T07:15:20;60.23;;;31.20;;
49840;SDS011;35738;49.890;5.930;2023-02-15T07:17:47;59.00;;;30.23;;
49840;SDS011;35738;49.890;5.930;2023-02-15T07:20:16;61.17;;;32.47;;
49840;SDS011;35738;49.890;5.930;2023-02-15T07:22:44;58.53;;;30.70;;
49840;SDS011;35738;49.890;5.930;2023-02-15T07:25:11;59.67;;;32.53;;
49840;SDS011;35738;49.890;5.930;2023-02-15T07:27:38;56.63;;;32.03;;
49840;SDS011;35738;49.890;5.930;2023-02-15T07:30:06;61.63;;;33.10;;
49840;SDS011;35738;49.890;5.930;2023-02-15T07:32:34;63.90;;;33.17;;
49840;SDS011;35738;49.890;5.930;2023-02-15T07:35:01;63.37;;;33.53;;
49840;SDS011;35738;49.890;5.930;2023-02-15T07:37:27;60.80;;;33.00;;
49840;SDS011;35738;49.890;5.930;2023-02-15T07:39:54;65.13;;;34.07;;
49840;SDS011;35738;49.890;5.930;2023-02-15T07:42:20;60.63;;;33.40;;
49840;SDS011;35738;49.890;5.930;2023-02-15T07:44:48;63.87;;;33.80;;
49840;SDS011;35738;49.890;5.930;2023-02-15T07:47:14;62.53;;;33.17;;
49840;SDS011;35738;49.890;5.930;2023-02-15T07:49:41;57.97;;;31.20;;
49840;SDS011;35738;49.890;5.930;2023-02-15T07:52:07;58.43;;;32.13;;
49840;SDS011;35738;49.890;5.930;2023-02-15T07:54:34;56.53;;;30.47;;
49840;SDS011;35738;49.890;5.930;2023-02-15T07:57:01;53.27;;;30.00;;
49840;SDS011;35738;49.890;5.930;2023-02-15T07:59:28;53.30;;;30.23;;
49840;SDS011;35738;49.890;5.930;2023-02-15T08:01:54;47.30;;;28.70;;
49840;SDS011;35738;49.890;5.930;2023-02-15T08:04:23;54.67;;;30.03;;
49840;SDS011;35738;49.890;5.930;2023-02-15T08:06:51;50.67;;;30.00;;
49840;SDS011;35738;49.890;5.930;2023-02-15T08:09:20;54.47;;;30.90;;
49840;SDS011;35738;49.890;5.930;2023-02-15T08:11:47;53.90;;;30.53;;
49840;SDS011;35738;49.890;5.930;2023-02-15T08:14:15;51.27;;;29.37;;
49840;SDS011;35738;49.890;5.930;2023-02-15T08:19:18;47.23;;;27.33;;
49840;SDS011;35738;49.890;5.930;2023-02-15T08:21:52;44.63;;;27.30;;
49840;SDS011;35738;49.890;5.930;2023-02-15T08:24:31;45.50;;;27.23;;
49840;SDS011;35738;49.890;5.930;2023-02-15T08:27:00;46.70;;;27.03;;
49840;SDS011;35738;49.890;5.930;2023-02-15T08:29:31;47.70;;;26.30;;
49840;SDS011;35738;49.890;5.930;2023-02-15T08:32:00;45.80;;;27.17;;
49840;SDS011;35738;49.890;5.930;2023-02-15T08:34:30;41.57;;;24.63;;
49840;SDS011;35738;49.890;5.930;2023-02-15T08:36:58;40.93;;;23.10;;
49840;SDS011;35738;49.890;5.930;2023-02-15T08:39:25;40.63;;;24.83;;
49840;SDS011;35738;49.890;5.930;2023-02-15T08:41:51;43.13;;;25.30;;
49840;SDS011;35738;49.890;5.930;2023-02-15T08:44:18;39.77;;;24.00;;
49840;SDS011;35738;49.890;5.930;2023-02-15T08:46:46;41.13;;;24.10;;
49840;SDS011;35738;49.890;5.930;2023-02-15T08:49:18;39.70;;;23.63;;
49840;SDS011;35738;49.890;5.930;2023-02-15T08:51:46;47.70;;;26.63;;
49840;SDS011;35738;49.890;5.930;2023-02-15T08:54:14;42.57;;;24.07;;
49840;SDS011;35738;49.890;5.930;2023-02-15T08:56:43;37.13;;;23.63;;
49840;SDS011;35738;49.890;5.930;2023-02-15T08:59:12;38.40;;;23.33;;
49840;SDS011;35738;49.890;5.930;2023-02-15T09:01:40;38.80;;;23.53;;
49840;SDS011;35738;49.890;5.930;2023-02-15T09:04:07;37.03;;;23.57;;
49840;SDS011;35738;49.890;5.930;2023-02-15T09:06:35;38.43;;;23.37;;
49840;SDS011;35738;49.890;5.930;2023-02-15T09:09:03;37.63;;;23.65;;
49840;SDS011;35738;49.890;5.930;2023-02-15T09:11:39;45.08;;;25.55;;
49840;SDS011;35738;49.890;5.930;2023-02-15T09:14:16;44.93;;;25.47;;
49840;SDS011;35738;49.890;5.930;2023-02-15T09:16:46;34.23;;;21.30;;
49840;SDS011;35738;49.890;5.930;2023-02-15T09:19:16;36.60;;;22.37;;
49840;SDS011;35738;49.890;5.930;2023-02-15T09:21:46;65.10;;;34.57;;
49840;SDS011;35738;49.890;5.930;2023-02-15T09:24:13;31.93;;;19.70;;
49840;SDS011;35738;49.890;5.930;2023-02-15T09:26:42;34.23;;;20.80;;
49840;SDS011;35738;49.890;5.930;2023-02-15T09:29:09;62.53;;;32.47;;
49840;SDS011;35738;49.890;5.930;2023-02-15T09:46:09;32.38;;;17.67;;
49840;SDS011;35738;49.890;5.930;2023-02-15T09:48:41;27.75;;;17.15;;
49840;SDS011;35738;49.890;5.930;2023-02-15T09:56:38;29.33;;;18.15;;
49840;SDS011;35738;49.890;5.930;2023-02-15T10:04:59;29.90;;;18.27;;
49840;SDS011;35738;49.890;5.930;2023-02-15T10:10:50;27.67;;;17.52;;
49840;SDS011;35738;49.890;5.930;2023-02-15T10:13:54;27.08;;;17.15;;
49840;SDS011;35738;49.890;5.930;2023-02-15T10:16:43;30.80;;;18.40;;
49840;SDS011;35738;49.890;5.930;2023-02-15T10:19:50;29.40;;;18.87;;
49840;SDS011;35738;49.890;5.930;2023-02-15T10:22:36;30.00;;;17.98;;
49840;SDS011;35738;49.890;5.930;2023-02-15T10:25:16;30.38;;;17.88;;
49840;SDS011;35738;49.890;5.930;2023-02-15T10:27:51;29.58;;;18.10;;
49840;SDS011;35738;49.890;5.930;2023-02-15T10:30:19;26.52;;;17.42;;
49840;SDS011;35738;49.890;5.930;2023-02-15T10:33:04;26.38;;;17.20;;
49840;SDS011;35738;49.890;5.930;2023-02-15T10:38:15;29.48;;;17.58;;
49840;SDS011;35738;49.890;5.930;2023-02-15T10:54:32;31.50;;;17.05;;
49840;SDS011;35738;49.890;5.930;2023-02-15T10:57:16;27.92;;;17.92;;
49840;SDS011;35738;49.890;5.930;2023-02-15T11:08:05;47.75;;;24.48;;
49840;SDS011;35738;49.890;5.930;2023-02-15T11:10:51;32.70;;;18.27;;
49840;SDS011;35738;49.890;5.930;2023-02-15T11:13:28;53.97;;;25.27;;
49840;SDS011;35738;49.890;5.930;2023-02-15T11:16:02;34.05;;;19.50;;
49840;SDS011;35738;49.890;5.930;2023-02-15T11:18:33;30.30;;;17.80;;
49840;SDS011;35738;49.890;5.930;2023-02-15T11:23:35;38.22;;;22.92;;
49840;SDS011;35738;49.890;5.930;2023-02-15T11:26:10;32.55;;;18.70;;
49840;SDS011;35738;49.890;5.930;2023-02-15T11:29:06;28.80;;;18.10;;
49840;SDS011;35738;49.890;5.930;2023-02-15T11:31:46;24.85;;;15.32;;
49840;SDS011;35738;49.890;5.930;2023-02-15T11:37:24;25.58;;;16.58;;
49840;SDS011;35738;49.890;5.930;2023-02-15T11:39:56;26.65;;;15.93;;
49840;SDS011;35738;49.890;5.930;2023-02-15T11:42:23;29.42;;;18.10;;
49840;SDS011;35738;49.890;5.930;2023-02-15T11:45:37;26.55;;;16.50;;
49840;SDS011;35738;49.890;5.930;2023-02-15T11:47:45;28.30;;;17.50;;
49840;SDS011;35738;49.890;5.930;2023-02-15T11:50:16;31.52;;;17.52;;
49840;SDS011;35738;49.890;5.930;2023-02-15T11:52:49;29.90;;;16.98;;
49840;SDS011;35738;49.890;5.930;2023-02-15T11:55:21;26.75;;;16.63;;
49840;SDS011;35738;49.890;5.930;2023-02-15T11:57:51;26.13;;;16.75;;
49840;SDS011;35738;49.890;5.930;2023-02-15T12:00:26;27.90;;;16.92;;
49840;SDS011;35738;49.890;5.930;2023-02-15T12:03:07;25.58;;;16.40;;
49840;SDS011;35738;49.890;5.930;2023-02-15T12:05:39;24.50;;;16.00;;
49840;SDS011;35738;49.890;5.930;2023-02-15T12:08:18;23.92;;;15.30;;
49840;SDS011;35738;49.890;5.930;2023-02-15T12:10:56;21.00;;;14.38;;
49840;SDS011;35738;49.890;5.930;2023-02-15T12:13:27;25.08;;;16.30;;
49840;SDS011;35738;49.890;5.930;2023-02-15T12:15:55;25.73;;;14.82;;
49840;SDS011;35738;49.890;5.930;2023-02-15T12:18:34;26.65;;;15.50;;
49840;SDS011;35738;49.890;5.930;2023-02-15T12:21:07;24.38;;;14.98;;
49840;SDS011;35738;49.890;5.930;2023-02-15T12:26:14;25.25;;;15.88;;
49840;SDS011;35738;49.890;5.930;2023-02-15T12:28:50;25.10;;;14.38;;
49840;SDS011;35738;49.890;5.930;2023-02-15T12:31:40;24.73;;;15.27;;
49840;SDS011;35738;49.890;5.930;2023-02-15T12:34:17;27.00;;;15.60;;
49840;SDS011;35738;49.890;5.930;2023-02-15T12:37:09;24.42;;;15.93;;
49840;SDS011;35738;49.890;5.930;2023-02-15T12:40:00;24.02;;;15.90;;
49840;SDS011;35738;49.890;5.930;2023-02-15T12:42:44;25.00;;;15.43;;
49840;SDS011;35738;49.890;5.930;2023-02-15T12:45:24;23.95;;;15.45;;
49840;SDS011;35738;49.890;5.930;2023-02-15T12:50:34;27.80;;;16.23;;
49840;SDS011;35738;49.890;5.930;2023-02-15T12:55:49;25.13;;;16.27;;
49840;SDS011;35738;49.890;5.930;2023-02-15T12:58:18;25.42;;;16.40;;
49840;SDS011;35738;49.890;5.930;2023-02-15T13:01:01;24.73;;;16.85;;
49840;SDS011;35738;49.890;5.930;2023-02-15T13:03:40;27.13;;;16.70;;
49840;SDS011;35738;49.890;5.930;2023-02-15T13:06:22;24.88;;;16.73;;
49840;SDS011;35738;49.890;5.930;2023-02-15T13:08:49;26.40;;;16.45;;
49840;SDS011;35738;49.890;5.930;2023-02-15T13:11:21;32.03;;;18.55;;
49840;SDS011;35738;49.890;5.930;2023-02-15T13:13:55;32.13;;;20.02;;
49840;SDS011;35738;49.890;5.930;2023-02-15T13:16:30;71.88;;;35.75;;
49840;SDS011;35738;49.890;5.930;2023-02-15T13:19:02;50.92;;;27.38;;
49840;SDS011;35738;49.890;5.930;2023-02-15T13:21:35;30.20;;;18.48;;
49840;SDS011;35738;49.890;5.930;2023-02-15T13:26:50;30.67;;;19.85;;
49840;SDS011;35738;49.890;5.930;2023-02-15T13:29:38;43.42;;;24.33;;
49840;SDS011;35738;49.890;5.930;2023-02-15T13:32:16;29.30;;;19.23;;
49840;SDS011;35738;49.890;5.930;2023-02-15T13:34:53;36.40;;;22.27;;
49840;SDS011;35738;49.890;5.930;2023-02-15T13:40:12;34.13;;;19.23;;
49840;SDS011;35738;49.890;5.930;2023-02-15T13:42:46;30.15;;;19.05;;
49840;SDS011;35738;49.890;5.930;2023-02-15T13:45:25;52.42;;;27.27;;
49840;SDS011;35738;49.890;5.930;2023-02-15T14:04:37;57.50;;;26.63;;
49840;SDS011;35738;49.890;5.930;2023-02-15T14:10:27;35.83;;;20.15;;
49840;SDS011;35738;49.890;5.930;2023-02-15T14:15:57;52.53;;;26.00;;
49840;SDS011;35738;49.890;5.930;2023-02-15T14:18:39;91.75;;;40.42;;
49840;SDS011;35738;49.890;5.930;2023-02-15T14:21:14;144.45;;;61.53;;
49840;SDS011;35738;49.890;5.930;2023-02-15T14:26:50;83.70;;;33.92;;
49840;SDS011;35738;49.890;5.930;2023-02-15T14:29:33;50.70;;;26.63;;
49840;SDS011;35738;49.890;5.930;2023-02-15T14:32:11;116.57;;;59.58;;
49840;SDS011;35738;49.890;5.930;2023-02-15T14:37:39;48.35;;;25.30;;
49840;SDS011;35738;49.890;5.930;2023-02-15T14:48:52;135.05;;;67.95;;
49840;SDS011;35738;49.890;5.930;2023-02-15T14:54:06;47.20;;;30.67;;
49840;SDS011;35738;49.890;5.930;2023-02-15T14:56:33;35.08;;;21.48;;
49840;SDS011;35738;49.890;5.930;2023-02-15T14:59:03;33.83;;;20.95;;
49840;SDS011;35738;49.890;5.930;2023-02-15T15:01:38;34.95;;;22.42;;
49840;SDS011;35738;49.890;5.930;2023-02-15T15:04:10;31.33;;;19.58;;
49840;SDS011;35738;49.890;5.930;2023-02-15T15:06:41;33.35;;;19.95;;
49840;SDS011;35738;49.890;5.930;2023-02-15T15:09:24;27.77;;;18.23;;
49840;SDS011;35738;49.890;5.930;2023-02-15T15:11:54;34.95;;;20.02;;
49840;SDS011;35738;49.890;5.930;2023-02-15T15:14:40;34.75;;;19.75;;
49840;SDS011;35738;49.890;5.930;2023-02-15T15:17:56;29.92;;;18.45;;
49840;SDS011;35738;49.890;5.930;2023-02-15T15:20:05;29.25;;;18.80;;
49840;SDS011;35738;49.890;5.930;2023-02-15T15:22:42;29.33;;;18.20;;
49840;SDS011;35738;49.890;5.930;2023-02-15T15:25:10;29.10;;;18.50;;
49840;SDS011;35738;49.890;5.930;2023-02-15T15:27:56;28.48;;;17.27;;
49840;SDS011;35738;49.890;5.930;2023-02-15T15:48:50;32.40;;;19.40;;
49840;SDS011;35738;49.890;5.930;2023-02-15T15:51:18;30.35;;;18.50;;
49840;SDS011;35738;49.890;5.930;2023-02-15T15:53:48;33.33;;;19.48;;
49840;SDS011;35738;49.890;5.930;2023-02-15T15:56:20;32.53;;;19.92;;
49840;SDS011;35738;49.890;5.930;2023-02-15T15:58:59;31.67;;;19.25;;
49840;SDS011;35738;49.890;5.930;2023-02-15T16:01:29;34.83;;;20.48;;
49840;SDS011;35738;49.890;5.930;2023-02-15T16:04:01;34.63;;;20.25;;
49840;SDS011;35738;49.890;5.930;2023-02-15T16:08:55;35.75;;;20.65;;
49840;SDS011;35738;49.890;5.930;2023-02-15T16:11:25;34.50;;;19.80;;
49840;SDS011;35738;49.890;5.930;2023-02-15T16:13:55;33.00;;;21.38;;
49840;SDS011;35738;49.890;5.930;2023-02-15T16:16:23;35.40;;;20.42;;
49840;SDS011;35738;49.890;5.930;2023-02-15T16:18:57;36.28;;;21.70;;
49840;SDS011;35738;49.890;5.930;2023-02-15T16:21:27;36.35;;;22.00;;
49840;SDS011;35738;49.890;5.930;2023-02-15T16:24:21;33.53;;;20.42;;
49840;SDS011;35738;49.890;5.930;2023-02-15T16:29:44;33.53;;;21.13;;
49840;SDS011;35738;49.890;5.930;2023-02-15T16:32:27;40.10;;;22.42;;
49840;SDS011;35738;49.890;5.930;2023-02-15T16:34:58;36.78;;;22.42;;
49840;SDS011;35738;49.890;5.930;2023-02-15T16:37:27;40.65;;;23.60;;
49840;SDS011;35738;49.890;5.930;2023-02-15T16:40:00;38.60;;;22.08;;
49840;SDS011;35738;49.890;5.930;2023-02-15T16:42:27;36.55;;;21.73;;
49840;SDS011;35738;49.890;5.930;2023-02-15T16:44:55;46.67;;;24.08;;
49840;SDS011;35738;49.890;5.930;2023-02-15T16:47:29;38.83;;;22.83;;
49840;SDS011;35738;49.890;5.930;2023-02-15T16:50:00;44.95;;;24.42;;
49840;SDS011;35738;49.890;5.930;2023-02-15T16:52:30;39.33;;;23.55;;
49840;SDS011;35738;49.890;5.930;2023-02-15T16:54:58;47.30;;;26.42;;
49840;SDS011;35738;49.890;5.930;2023-02-15T16:57:27;48.15;;;24.00;;
49840;SDS011;35738;49.890;5.930;2023-02-15T16:59:59;46.22;;;24.65;;
49840;SDS011;35738;49.890;5.930;2023-02-15T17:02:31;42.08;;;23.50;;
49840;SDS011;35738;49.890;5.930;2023-02-15T17:05:19;42.05;;;23.48;;
49840;SDS011;35738;49.890;5.930;2023-02-15T17:10:32;43.05;;;24.25;;
49840;SDS011;35738;49.890;5.930;2023-02-15T17:13:15;40.47;;;23.67;;
49840;SDS011;35738;49.890;5.930;2023-02-15T17:15:44;40.53;;;22.98;;
49840;SDS011;35738;49.890;5.930;2023-02-15T17:21:11;42.13;;;22.75;;
49840;SDS011;35738;49.890;5.930;2023-02-15T17:23:43;39.20;;;23.27;;
49840;SDS011;35738;49.890;5.930;2023-02-15T17:26:13;39.15;;;22.42;;
49840;SDS011;35738;49.890;5.930;2023-02-15T17:28:49;39.50;;;21.50;;
49840;SDS011;35738;49.890;5.930;2023-02-15T17:31:17;46.58;;;23.13;;
49840;SDS011;35738;49.890;5.930;2023-02-15T17:33:46;38.38;;;23.17;;
49840;SDS011;35738;49.890;5.930;2023-02-15T17:36:14;39.75;;;22.48;;
49840;SDS011;35738;49.890;5.930;2023-02-15T17:41:27;41.75;;;22.83;;